Time;durP1;ratioP1;P1;durP2;ratioP2;P2;SDS_P1;SDS_P2;PMS_P1;PMS_P2;Temp;Humidity;BMP_temperature;BMP_pressure;BME280_temperature;BME280_humidity;BME280_pressure;Samples;Min_cycle;Max_cycle;Signal;HPM_P1;HPM_P2
2022/01/13 00:01:28;;;;;;;7.37;3.13;;;-5.70;99.90;;;;;;2213527;64;20108;-44
2022/01/13 00:03:54;;;;;;;13.13;5.65;;;-5.70;99.90;;;;;;2216482;64;20089;-44
2022/01/13 00:06:21;;;;;;;17.23;8.00;;;-5.70;99.90;;;;;;2216621;64;20162;-45
2022/01/13 00:08:48;;;;;;;16.53;6.90;;;-5.70;99.90;;;;;;2216675;64;20087;-45
2022/01/13 00:11:14;;;;;;;16.73;6.63;;;-5.70;99.90;;;;;;2216702;64;20088;-43
2022/01/13 00:14:11;;;;;;;11.93;6.37;;;-5.70;99.90;;;;;;2216608;64;20084;-44
2022/01/13 00:21:37;;;;;;;11.37;5.13;;;-5.70;99.90;;;;;;2216793;64;20100;-43
2022/01/13 00:24:06;;;;;;;18.43;7.80;;;-5.70;99.90;;;;;;2220062;64;20241;-44
2022/01/13 00:26:35;;;;;;;13.17;5.97;;;-5.70;99.90;;;;;;2216787;64;20092;-43
2022/01/13 00:29:03;;;;;;;16.97;6.50;;;-5.70;99.90;;;;;;2212913;64;20114;-43
2022/01/13 00:31:33;;;;;;;15.53;7.43;;;-5.70;99.90;;;;;;2212947;64;20096;-44
2022/01/13 00:34:02;;;;;;;13.23;6.60;;;-5.70;99.90;;;;;;2212989;64;20097;-43
2022/01/13 00:36:31;;;;;;;14.53;7.00;;;-5.60;99.90;;;;;;2213001;64;20864;-44
2022/01/13 00:38:59;;;;;;;11.80;5.70;;;-5.70;99.90;;;;;;2212950;64;20173;-44
2022/01/13 00:41:28;;;;;;;9.07;5.00;;;-5.60;99.90;;;;;;2213012;64;20096;-44
2022/01/13 00:43:58;;;;;;;13.57;5.80;;;-5.70;99.90;;;;;;2212708;64;20135;-43
2022/01/13 00:46:29;;;;;;;16.93;6.53;;;-5.70;99.90;;;;;;2213018;64;20488;-44
2022/01/13 00:48:56;;;;;;;16.87;8.00;;;-5.70;99.90;;;;;;2212750;64;20616;-45
2022/01/13 00:51:24;;;;;;;12.60;6.00;;;-5.70;99.90;;;;;;2213005;64;20134;-43
2022/01/13 00:53:51;;;;;;;7.13;3.27;;;-5.70;99.90;;;;;;2214193;64;20107;-42
2022/01/13 00:56:18;;;;;;;13.57;7.73;;;-5.70;99.90;;;;;;2217217;64;20084;-43
2022/01/13 00:58:45;;;;;;;15.07;5.03;;;-5.60;99.90;;;;;;2216983;64;20097;-44
2022/01/13 01:01:12;;;;;;;13.70;6.83;;;-5.70;99.90;;;;;;2217297;64;20534;-45
2022/01/13 01:03:39;;;;;;;13.30;7.30;;;-5.70;99.90;;;;;;2217293;64;20115;-44
2022/01/13 01:06:06;;;;;;;14.63;8.83;;;-5.70;99.90;;;;;;2217203;64;20081;-44
2022/01/13 01:08:36;;;;;;;14.80;5.53;;;-5.70;99.90;;;;;;2217322;64;20464;-44
2022/01/13 01:11:03;;;;;;;13.37;6.27;;;-5.70;99.90;;;;;;2217106;64;20101;-45
2022/01/13 01:13:33;;;;;;;15.23;7.17;;;-5.70;99.90;;;;;;2217090;64;20108;-45
2022/01/13 01:16:04;;;;;;;15.50;7.77;;;-5.70;99.90;;;;;;2217074;64;20552;-43
2022/01/13 01:26:27;;;;;;;17.50;6.63;;;-5.70;99.90;;;;;;2220129;64;20127;-44
2022/01/13 01:31:35;;;;;;;11.50;5.17;;;-5.70;99.90;;;;;;2213979;64;20107;-44
2022/01/13 01:34:37;;;;;;;12.60;6.65;;;-5.70;99.90;;;;;;2217009;64;20365;-43
2022/01/13 01:36:51;;;;;;;15.83;5.73;;;-5.60;99.90;;;;;;2216997;64;20123;-42
2022/01/13 01:39:18;;;;;;;12.27;5.17;;;-5.70;99.90;;;;;;2217055;64;20477;-44
2022/01/13 01:41:47;;;;;;;17.30;5.50;;;-5.70;99.90;;;;;;2217117;64;20100;-44
2022/01/13 01:44:19;;;;;;;5.10;1.93;;;-5.70;99.90;;;;;;2213829;64;20591;-42
2022/01/13 01:46:47;;;;;;;15.77;5.20;;;-5.70;99.90;;;;;;2217168;64;20089;-45
2022/01/13 01:49:17;;;;;;;13.40;5.83;;;-5.70;99.90;;;;;;2208349;64;20092;-44
2022/01/13 01:51:45;;;;;;;10.70;6.13;;;-5.60;99.90;;;;;;2208833;64;20513;-41
2022/01/13 01:54:12;;;;;;;16.50;6.70;;;-5.60;99.90;;;;;;2205568;64;20178;-43
2022/01/13 01:56:39;;;;;;;9.80;3.83;;;-5.70;99.90;;;;;;2209058;64;20531;-45
2022/01/13 01:59:08;;;;;;;23.63;7.27;;;-5.70;99.90;;;;;;2212135;64;20097;-44
2022/01/13 02:01:34;;;;;;;12.77;6.07;;;-5.70;99.90;;;;;;2211970;64;20616;-45
2022/01/13 02:04:04;;;;;;;14.80;6.37;;;-5.70;99.90;;;;;;2208920;64;20480;-44
2022/01/13 02:06:31;;;;;;;8.63;2.13;;;-5.70;99.90;;;;;;2208760;64;20101;-43
2022/01/13 02:09:00;;;;;;;10.67;4.43;;;-5.70;99.90;;;;;;2208759;64;20561;-45
2022/01/13 02:11:28;;;;;;;14.73;5.13;;;-5.70;99.90;;;;;;2208981;64;20144;-44
2022/01/13 02:13:59;;;;;;;9.70;4.63;;;-5.70;99.90;;;;;;2208831;64;20155;-45
2022/01/13 02:19:01;;;;;;;12.10;6.27;;;-5.80;99.90;;;;;;2208803;64;20084;-46
2022/01/13 02:21:28;;;;;;;12.30;5.53;;;-5.70;99.90;;;;;;2208642;64;20081;-44
2022/01/13 02:23:57;;;;;;;13.57;4.90;;;-5.80;99.90;;;;;;2208859;64;20101;-44
2022/01/13 02:26:25;;;;;;;13.47;6.07;;;-5.80;99.90;;;;;;2210449;64;20538;-45
2022/01/13 02:28:52;;;;;;;14.37;5.80;;;-5.80;99.90;;;;;;2212968;64;20468;-44
2022/01/13 02:31:19;;;;;;;11.83;5.20;;;-5.80;99.90;;;;;;2212987;64;20092;-43
2022/01/13 02:33:46;;;;;;;13.87;4.20;;;-5.80;99.90;;;;;;2213017;64;20194;-43
2022/01/13 02:36:16;;;;;;;14.83;6.33;;;-5.80;99.90;;;;;;2205657;64;20168;-42
2022/01/13 02:38:50;;;;;;;14.80;5.73;;;-5.80;99.90;;;;;;2210031;64;20108;-45
2022/01/13 02:41:17;;;;;;;10.35;4.30;;;-5.80;99.90;;;;;;2212864;64;20077;-43
2022/01/13 02:43:46;;;;;;;13.43;5.07;;;-5.80;99.90;;;;;;2212909;64;20629;-43
2022/01/13 02:46:54;;;;;;;16.10;5.90;;;-5.80;99.90;;;;;;2216301;64;20096;-45
2022/01/13 02:49:20;;;;;;;10.90;2.88;;;-5.80;99.90;;;;;;2216029;64;20108;-43
2022/01/13 02:51:52;;;;;;;9.93;3.40;;;-5.80;99.90;;;;;;2209700;64;20647;-43
2022/01/13 02:54:19;;;;;;;14.17;5.87;;;-5.80;99.90;;;;;;2212935;64;20089;-43
2022/01/13 02:56:46;;;;;;;12.13;4.93;;;-5.80;99.90;;;;;;2213110;64;20108;-45
2022/01/13 02:59:19;;;;;;;14.17;5.30;;;-5.80;99.90;;;;;;2212860;64;20178;-44
2022/01/13 03:01:46;;;;;;;15.73;5.97;;;-5.80;99.90;;;;;;2210060;64;20535;-44
2022/01/13 03:04:13;;;;;;;7.13;1.83;;;-5.80;99.90;;;;;;2212868;64;20097;-45
2022/01/13 03:06:42;;;;;;;13.47;4.80;;;-5.80;99.90;;;;;;2212724;64;20180;-44
2022/01/13 03:09:11;;;;;;;11.60;5.60;;;-5.80;99.90;;;;;;2212859;64;20089;-43
2022/01/13 03:11:38;;;;;;;11.27;4.53;;;-5.80;99.90;;;;;;2212942;64;20622;-45
2022/01/13 03:14:10;;;;;;;9.97;2.93;;;-5.80;99.90;;;;;;2209815;64;20174;-44
2022/01/13 03:16:38;;;;;;;15.87;6.47;;;-5.80;99.90;;;;;;2209748;64;20081;-45
2022/01/13 03:19:05;;;;;;;15.93;6.17;;;-5.80;99.90;;;;;;2212939;64;20097;-43
2022/01/13 03:21:32;;;;;;;6.13;2.50;;;-5.80;99.90;;;;;;2212788;64;20093;-44
2022/01/13 03:24:00;;;;;;;11.53;5.43;;;-5.80;99.90;;;;;;2212864;64;20104;-44
2022/01/13 03:26:26;;;;;;;13.87;5.73;;;-5.80;99.90;;;;;;2215868;64;20102;-47
2022/01/13 03:31:40;;;;;;;14.73;6.78;;;-5.80;99.90;;;;;;2216527;64;20080;-45
2022/01/13 03:34:07;;;;;;;9.33;3.97;;;-5.80;99.90;;;;;;2216584;64;20119;-43
2022/01/13 03:36:35;;;;;;;12.40;5.93;;;-5.80;99.90;;;;;;2216762;64;20103;-52
2022/01/13 03:39:05;;;;;;;7.53;3.57;;;-5.80;99.90;;;;;;2216539;64;20503;-43
2022/01/13 03:41:33;;;;;;;13.00;6.10;;;-5.80;99.90;;;;;;2216729;64;20096;-45
2022/01/13 03:44:08;;;;;;;7.20;2.97;;;-5.80;99.90;;;;;;2216595;64;20104;-44
2022/01/13 03:46:36;;;;;;;4.17;1.50;;;-5.90;99.90;;;;;;2216619;64;20583;-44
2022/01/13 03:49:07;;;;;;;14.33;5.40;;;-5.80;99.90;;;;;;2216967;64;20092;-45
2022/01/13 03:52:02;;;;;;;5.07;1.90;;;-5.90;99.90;;;;;;2217314;64;20092;-45
2022/01/13 03:54:31;;;;;;;5.65;1.70;;;-5.90;99.90;;;;;;2210459;64;20084;-45
2022/01/13 03:57:10;;;;;;;4.27;1.60;;;-5.90;99.90;;;;;;2217919;64;20169;-42
2022/01/13 04:00:15;;;;;;;7.73;2.87;;;-5.90;99.90;;;;;;2217925;64;20103;-43
2022/01/13 04:02:46;;;;;;;8.13;3.17;;;-5.90;99.90;;;;;;2221508;64;20092;-45
2022/01/13 04:05:13;;;;;;;3.37;1.40;;;-5.90;99.90;;;;;;2217872;64;20072;-44
2022/01/13 04:07:40;;;;;;;8.87;3.63;;;-5.90;99.90;;;;;;2218049;64;20100;-45
2022/01/13 04:10:23;;;;;;;6.70;2.90;;;-5.90;99.90;;;;;;2217989;64;20092;-45
2022/01/13 04:12:50;;;;;;;4.30;1.47;;;-5.90;99.90;;;;;;2217932;64;20123;-44
2022/01/13 04:15:19;;;;;;;10.53;4.67;;;-5.80;99.90;;;;;;2204805;64;20686;-44
2022/01/13 04:17:47;;;;;;;8.90;4.07;;;-5.80;99.90;;;;;;2205115;64;20085;-46
2022/01/13 04:20:14;;;;;;;12.40;5.33;;;-5.80;99.90;;;;;;2205263;64;20081;-44
2022/01/13 04:22:41;;;;;;;14.03;4.23;;;-5.80;99.90;;;;;;2200099;65;20697;-44
2022/01/13 04:25:09;;;;;;;8.00;3.83;;;-5.80;99.90;;;;;;2198087;65;20544;-45
2022/01/13 04:27:41;;;;;;;7.87;2.97;;;-5.80;99.90;;;;;;2200688;65;20477;-46
2022/01/13 04:30:33;;;;;;;8.77;2.90;;;-5.80;99.90;;;;;;2203805;65;20102;-43
2022/01/13 04:32:59;;;;;;;10.37;2.23;;;-5.80;99.90;;;;;;2200790;65;20435;-44
2022/01/13 04:35:26;;;;;;;7.43;2.93;;;-5.80;99.90;;;;;;2203638;65;20079;-44
2022/01/13 04:37:58;;;;;;;6.93;1.67;;;-5.80;99.90;;;;;;2203847;65;20517;-43
2022/01/13 04:40:25;;;;;;;10.20;4.20;;;-5.80;99.90;;;;;;2200877;65;20649;-44
2022/01/13 04:42:53;;;;;;;18.43;4.97;;;-5.80;99.90;;;;;;2200868;65;20125;-44
2022/01/13 04:45:21;;;;;;;8.30;2.23;;;-5.70;99.90;;;;;;2201423;64;20125;-45
2022/01/13 04:47:49;;;;;;;3.47;1.53;;;-5.70;99.90;;;;;;2208262;64;20094;-45
2022/01/13 04:50:16;;;;;;;2.40;1.50;;;-5.70;99.90;;;;;;2211504;64;20108;-44
2022/01/13 04:52:43;;;;;;;16.97;4.93;;;-5.70;99.90;;;;;;2208326;64;20093;-45
2022/01/13 04:55:12;;;;;;;12.07;4.23;;;-5.70;99.90;;;;;;2208403;64;20113;-43
2022/01/13 04:57:40;;;;;;;9.57;3.23;;;-5.70;99.90;;;;;;2211461;64;20585;-44
2022/01/13 05:00:08;;;;;;;4.50;1.40;;;-5.70;99.90;;;;;;2213908;64;20590;-44
2022/01/13 05:02:35;;;;;;;5.80;2.77;;;-5.70;99.90;;;;;;2217663;64;20605;-44
2022/01/13 05:05:02;;;;;;;4.07;1.63;;;-5.70;99.90;;;;;;2217631;64;20173;-44
2022/01/13 05:07:28;;;;;;;3.67;0.97;;;-5.70;99.90;;;;;;2217712;64;20173;-44
2022/01/13 05:09:55;;;;;;;10.20;2.37;;;-5.70;99.90;;;;;;2214427;64;20582;-44
2022/01/13 05:12:28;;;;;;;4.97;1.73;;;-5.70;99.90;;;;;;2217775;64;20092;-45
2022/01/13 05:15:01;;;;;;;5.00;1.33;;;-5.70;99.90;;;;;;2217625;64;20111;-43
2022/01/13 05:20:18;;;;;;;6.53;2.37;;;-5.70;99.90;;;;;;2217534;64;20088;-45
2022/01/13 05:22:45;;;;;;;3.17;1.63;;;-5.70;99.90;;;;;;2217653;64;20672;-43
2022/01/13 05:25:12;;;;;;;4.97;1.47;;;-5.70;99.90;;;;;;2217559;64;20102;-42
2022/01/13 05:27:39;;;;;;;9.00;3.20;;;-5.60;99.90;;;;;;2217672;64;20096;-44
2022/01/13 05:30:07;;;;;;;4.20;2.10;;;-5.60;99.90;;;;;;2217487;64;20088;-43
2022/01/13 05:32:34;;;;;;;3.63;0.50;;;-5.60;99.90;;;;;;2217544;64;20088;-44
2022/01/13 05:35:01;;;;;;;11.10;1.93;;;-5.60;99.90;;;;;;2217538;64;20150;-43
2022/01/13 05:37:28;;;;;;;4.00;1.30;;;-5.60;99.90;;;;;;2217404;64;20100;-42
2022/01/13 05:39:55;;;;;;;5.53;1.77;;;-5.50;99.90;;;;;;2217640;64;20092;-43
2022/01/13 05:42:22;;;;;;;5.53;2.20;;;-5.50;99.90;;;;;;2217411;64;20464;-46
2022/01/13 05:44:50;;;;;;;3.63;1.90;;;-5.50;99.90;;;;;;2217588;64;20182;-42
2022/01/13 05:47:17;;;;;;;10.37;1.70;;;-5.50;99.90;;;;;;2217539;64;20092;-43
2022/01/13 05:49:43;;;;;;;4.87;1.63;;;-5.40;99.90;;;;;;2217470;64;20098;-42
2022/01/13 05:52:11;;;;;;;7.70;3.07;;;-5.40;99.90;;;;;;2210258;64;20096;-42
2022/01/13 05:54:38;;;;;;;7.37;2.00;;;-5.40;99.90;;;;;;2217336;64;20096;-42
2022/01/13 05:57:06;;;;;;;4.87;1.30;;;-5.30;99.90;;;;;;2220837;64;20098;-44
2022/01/13 05:59:36;;;;;;;3.30;1.47;;;-5.20;99.90;;;;;;2217400;64;20115;-43
2022/01/13 06:02:04;;;;;;;2.07;0.93;;;-5.30;99.90;;;;;;2217411;64;20126;-43
2022/01/13 06:04:31;;;;;;;3.23;1.13;;;-5.20;99.90;;;;;;2217605;64;20099;-42
2022/01/13 06:07:01;;;;;;;9.33;2.20;;;-5.20;99.90;;;;;;2217522;64;20096;-42
2022/01/13 06:09:28;;;;;;;4.70;1.40;;;-5.20;99.90;;;;;;2207055;64;20099;-43
2022/01/13 06:12:01;;;;;;;3.70;1.27;;;-5.10;99.90;;;;;;2217567;64;20088;-43
2022/01/13 06:14:28;;;;;;;3.60;0.63;;;-5.10;99.90;;;;;;2217537;64;20444;-42
2022/01/13 06:16:55;;;;;;;6.70;1.30;;;-5.10;99.90;;;;;;2217402;64;20084;-42
2022/01/13 06:19:24;;;;;;;5.90;1.67;;;-5.10;99.90;;;;;;2217468;64;20099;-43
2022/01/13 06:21:51;;;;;;;3.30;0.97;;;-5.10;99.90;;;;;;2217289;64;20084;-42
2022/01/13 06:24:18;;;;;;;3.50;1.17;;;-5.00;99.90;;;;;;2217560;64;20584;-43
2022/01/13 06:26:48;;;;;;;4.60;0.70;;;-5.10;99.90;;;;;;2213766;64;20089;-44
2022/01/13 06:29:14;;;;;;;7.10;1.30;;;-5.10;99.90;;;;;;2213672;64;20144;-42
2022/01/13 06:31:41;;;;;;;3.23;1.00;;;-5.00;99.90;;;;;;2213468;64;20118;-42
2022/01/13 06:34:09;;;;;;;4.70;0.93;;;-4.90;99.90;;;;;;2213583;64;20093;-42
2022/01/13 06:36:36;;;;;;;4.30;1.73;;;-4.90;99.90;;;;;;2203100;64;20097;-41
2022/01/13 06:39:03;;;;;;;11.20;2.10;;;-4.90;99.90;;;;;;2199993;64;20156;-43
2022/01/13 06:41:29;;;;;;;4.23;1.50;;;-4.90;99.90;;;;;;2213608;64;20191;-43
2022/01/13 06:43:56;;;;;;;3.23;1.30;;;-4.80;99.90;;;;;;2213745;64;20111;-43
2022/01/13 06:46:23;;;;;;;4.43;2.70;;;-4.80;99.90;;;;;;2213341;64;20100;-42
2022/01/13 06:48:50;;;;;;;6.70;2.00;;;-4.80;99.90;;;;;;2213464;64;20119;-40
2022/01/13 06:51:17;;;;;;;5.47;1.40;;;-4.80;99.90;;;;;;2213350;64;20156;-42
2022/01/13 06:53:45;;;;;;;10.27;2.13;;;-4.70;99.90;;;;;;2213407;64;20088;-41
2022/01/13 06:56:12;;;;;;;4.07;1.23;;;-4.60;99.90;;;;;;2213327;64;20098;-41
2022/01/13 06:58:39;;;;;;;6.57;2.10;;;-4.60;99.90;;;;;;2213516;64;20091;-42
2022/01/13 07:01:06;;;;;;;7.20;1.83;;;-4.60;99.90;;;;;;2213615;64;20630;-42
2022/01/13 07:03:32;;;;;;;5.00;1.33;;;-4.50;99.90;;;;;;2213287;64;20093;-42
2022/01/13 07:05:59;;;;;;;2.50;1.27;;;-4.50;99.90;;;;;;2213501;64;20084;-42
2022/01/13 07:08:26;;;;;;;3.50;1.10;;;-4.50;99.90;;;;;;2213549;64;20097;-42
2022/01/13 07:10:53;;;;;;;2.67;1.47;;;-4.50;99.90;;;;;;2213239;64;20103;-42
2022/01/13 07:13:22;;;;;;;8.23;1.80;;;-4.50;99.90;;;;;;2213399;64;20165;-41
2022/01/13 07:15:49;;;;;;;5.40;1.20;;;-4.50;99.90;;;;;;2213339;64;20104;-42
2022/01/13 07:18:22;;;;;;;3.90;1.57;;;-4.50;99.90;;;;;;2213259;64;20096;-41
2022/01/13 07:20:56;;;;;;;5.90;1.50;;;-4.40;99.90;;;;;;2210525;64;20560;-41
2022/01/13 07:23:23;;;;;;;4.00;1.50;;;-4.40;99.90;;;;;;2213353;64;20093;-42
2022/01/13 07:25:53;;;;;;;3.83;1.63;;;-4.30;99.90;;;;;;2215578;64;20088;-41
2022/01/13 07:28:20;;;;;;;4.03;1.00;;;-4.30;99.90;;;;;;2217317;64;20098;-41
2022/01/13 07:30:47;;;;;;;3.40;1.57;;;-4.10;99.90;;;;;;2217994;64;20072;-42
2022/01/13 07:33:14;;;;;;;4.97;1.33;;;-4.10;99.90;;;;;;2214730;64;20185;-42
2022/01/13 07:35:41;;;;;;;3.57;1.10;;;-4.20;99.90;;;;;;2217832;64;20119;-42
2022/01/13 07:38:08;;;;;;;7.07;1.33;;;-4.20;99.90;;;;;;2217826;64;20096;-42
2022/01/13 07:40:36;;;;;;;7.23;1.73;;;-4.10;99.90;;;;;;2217903;64;20096;-41
2022/01/13 07:43:05;;;;;;;2.20;0.87;;;-4.10;99.90;;;;;;2217851;64;20164;-42
2022/01/13 07:45:32;;;;;;;1.90;0.77;;;-4.00;99.90;;;;;;2218032;64;20092;-41
2022/01/13 07:47:59;;;;;;;2.10;0.83;;;-4.10;99.90;;;;;;2217970;64;20095;-41
2022/01/13 07:50:26;;;;;;;3.90;1.30;;;-4.00;99.90;;;;;;2217866;64;20103;-40
2022/01/13 07:52:52;;;;;;;3.23;0.80;;;-4.20;99.90;;;;;;2217881;64;20103;-42
2022/01/13 07:55:19;;;;;;;1.30;0.77;;;-4.30;99.90;;;;;;2217737;64;20107;-42
2022/01/13 07:57:46;;;;;;;5.87;2.03;;;-4.20;99.90;;;;;;2217837;64;20111;-41
2022/01/13 08:00:19;;;;;;;5.10;0.80;;;-4.20;99.90;;;;;;2217857;64;20103;-41
2022/01/13 08:02:46;;;;;;;4.13;1.27;;;-4.10;99.90;;;;;;2217934;64;20097;-41
2022/01/13 08:05:13;;;;;;;1.83;0.90;;;-4.10;99.90;;;;;;2218019;64;20184;-41
2022/01/13 08:07:40;;;;;;;6.20;1.07;;;-4.00;99.90;;;;;;2208823;64;20703;-42
2022/01/13 08:10:07;;;;;;;1.87;0.93;;;-4.00;99.90;;;;;;2209279;64;20077;-40
2022/01/13 08:12:34;;;;;;;2.30;0.80;;;-4.10;99.90;;;;;;2208943;64;20089;-41
2022/01/13 08:15:01;;;;;;;4.40;1.70;;;-4.10;99.90;;;;;;2206065;64;21002;-41
2022/01/13 08:20:21;;;;;;;2.77;1.23;;;-4.20;99.90;;;;;;2206317;64;20097;-42
2022/01/13 08:22:47;;;;;;;2.70;1.00;;;-4.10;99.90;;;;;;2208943;64;20096;-41
2022/01/13 08:25:17;;;;;;;6.20;2.30;;;-4.10;99.90;;;;;;2207803;64;20573;-50
2022/01/13 08:27:44;;;;;;;3.37;0.90;;;-4.20;99.90;;;;;;2205213;64;20081;-43
2022/01/13 08:30:11;;;;;;;2.70;1.10;;;-4.20;99.90;;;;;;2205305;64;20639;-41
2022/01/13 08:32:38;;;;;;;1.53;0.93;;;-4.10;99.90;;;;;;2208348;64;20219;-42
2022/01/13 08:35:06;;;;;;;3.13;1.00;;;-4.20;99.90;;;;;;2205069;64;20097;-42
2022/01/13 08:37:33;;;;;;;1.93;0.87;;;-4.20;99.90;;;;;;2202332;64;20085;-41
2022/01/13 08:40:01;;;;;;;3.27;1.37;;;-4.10;99.90;;;;;;2210551;64;20100;-41
2022/01/13 08:42:29;;;;;;;2.73;0.90;;;-4.10;99.90;;;;;;2214004;64;20092;-41
2022/01/13 08:44:56;;;;;;;3.23;0.73;;;-4.10;99.90;;;;;;2213668;64;20467;-41
2022/01/13 08:47:22;;;;;;;3.23;0.77;;;-4.10;99.90;;;;;;2213929;64;20096;-40
2022/01/13 08:49:50;;;;;;;2.77;1.27;;;-4.10;99.90;;;;;;2213753;64;20189;-42
2022/01/13 08:52:17;;;;;;;2.53;0.97;;;-4.00;99.90;;;;;;2213800;64;20192;-41
2022/01/13 08:54:46;;;;;;;4.67;1.13;;;-4.10;99.90;;;;;;2213612;64;20096;-41
2022/01/13 08:57:13;;;;;;;2.30;0.60;;;-4.20;99.90;;;;;;2213899;64;20084;-41
2022/01/13 08:59:40;;;;;;;5.87;1.70;;;-4.20;99.90;;;;;;2213775;64;20088;-42
2022/01/13 09:02:07;;;;;;;3.67;1.13;;;-4.10;99.90;;;;;;2213952;64;20108;-40
2022/01/13 09:04:34;;;;;;;7.30;1.60;;;-4.10;99.90;;;;;;2213912;64;20096;-42
2022/01/13 09:07:01;;;;;;;7.20;1.60;;;-4.10;99.90;;;;;;2213589;64;20087;-41
2022/01/13 09:09:27;;;;;;;1.47;0.70;;;-4.20;99.90;;;;;;2213900;64;20099;-41
2022/01/13 09:11:54;;;;;;;0.93;0.50;;;-4.10;99.90;;;;;;2213797;64;20575;-41
2022/01/13 09:14:25;;;;;;;1.90;0.60;;;-4.10;99.90;;;;;;2213913;64;20089;-42
2022/01/13 09:16:53;;;;;;;2.10;0.80;;;-4.10;99.90;;;;;;2213541;64;20094;-42
2022/01/13 09:19:20;;;;;;;1.70;1.20;;;-4.10;99.90;;;;;;2208014;64;20108;-42
2022/01/13 09:21:47;;;;;;;6.97;1.40;;;-4.10;99.90;;;;;;2208180;64;20178;-41
2022/01/13 09:24:18;;;;;;;1.80;0.80;;;-4.20;99.90;;;;;;2204992;64;20108;-42
2022/01/13 09:26:45;;;;;;;4.37;2.17;;;-4.20;99.90;;;;;;2205139;64;20181;-43
2022/01/13 09:29:12;;;;;;;2.90;1.47;;;-4.20;99.90;;;;;;2208109;64;20181;-41
2022/01/13 09:31:40;;;;;;;1.87;0.80;;;-4.20;99.90;;;;;;2211623;64;20558;-42
2022/01/13 09:34:13;;;;;;;2.67;0.83;;;-4.20;99.90;;;;;;2208401;64;20089;-41
2022/01/13 09:36:40;;;;;;;2.97;1.30;;;-4.30;99.90;;;;;;2208237;64;20610;-42
2022/01/13 09:39:07;;;;;;;3.00;1.00;;;-4.40;99.90;;;;;;2208282;64;20093;-41
2022/01/13 09:41:34;;;;;;;5.57;1.07;;;-4.30;99.90;;;;;;2208305;64;20622;-42
2022/01/13 09:44:04;;;;;;;3.53;1.27;;;-4.30;99.90;;;;;;2207949;64;20621;-43
2022/01/13 09:46:32;;;;;;;4.60;2.07;;;-4.30;99.90;;;;;;2208124;64;20175;-43
2022/01/13 09:49:03;;;;;;;1.90;1.00;;;-4.30;99.90;;;;;;2208215;64;20332;-43
2022/01/13 09:51:34;;;;;;;4.67;1.80;;;-4.40;99.90;;;;;;2223125;64;20527;-42
2022/01/13 09:54:01;;;;;;;3.23;1.13;;;-4.30;99.90;;;;;;2217457;64;20080;-42
2022/01/13 09:56:28;;;;;;;4.43;1.53;;;-4.40;99.90;;;;;;2209896;64;20106;-44
2022/01/13 09:58:55;;;;;;;4.00;1.27;;;-4.50;99.90;;;;;;2220615;64;20096;-43
2022/01/13 10:01:22;;;;;;;4.67;1.17;;;-4.50;99.90;;;;;;2217503;64;20173;-43
2022/01/13 10:03:49;;;;;;;4.90;1.20;;;-4.50;99.90;;;;;;2217530;64;20088;-43
2022/01/13 10:06:20;;;;;;;2.30;0.87;;;-4.50;99.90;;;;;;2217380;64;20092;-45
2022/01/13 10:08:56;;;;;;;3.40;0.97;;;-4.50;99.90;;;;;;2214350;64;20632;-44
2022/01/13 10:11:52;;;;;;;4.83;1.30;;;-4.50;99.90;;;;;;2217408;64;20524;-43
2022/01/13 10:17:15;;;;;;;3.93;1.20;;;-4.50;99.90;;;;;;2214155;64;20092;-44
2022/01/13 10:19:44;;;;;;;5.10;1.37;;;-4.60;99.90;;;;;;2217455;64;20104;-43
2022/01/13 10:22:21;;;;;;;3.57;1.03;;;-4.50;99.90;;;;;;2217509;64;20085;-43
2022/01/13 10:24:56;;;;;;;5.80;2.67;;;-4.60;99.90;;;;;;2217484;64;20127;-43
2022/01/13 10:27:23;;;;;;;;;;;-4.60;99.90;;;;;;2212362;64;20096;-43
2022/01/13 10:29:54;;;;;;;2.57;0.97;;;-4.60;99.90;;;;;;2209111;64;19964;-44
2022/01/13 10:32:26;;;;;;;2.03;0.90;;;-4.60;99.90;;;;;;2212485;64;20093;-43
2022/01/13 10:35:00;;;;;;;4.50;1.23;;;-4.70;99.90;;;;;;2212206;64;20096;-44
2022/01/13 10:37:37;;;;;;;3.10;0.98;;;-4.70;99.90;;;;;;2212448;64;20115;-44
2022/01/13 10:40:10;;;;;;;3.67;1.53;;;-4.70;99.90;;;;;;2212495;64;20088;-43
2022/01/13 10:45:46;;;;;;;4.63;1.42;;;-4.70;99.90;;;;;;2212253;64;20100;-43
2022/01/13 10:48:24;;;;;;;3.97;1.80;;;-4.80;99.90;;;;;;2211872;64;20096;-42
2022/01/13 10:50:56;;;;;;;5.00;1.33;;;-4.70;99.90;;;;;;2212259;64;20088;-44
2022/01/13 10:53:27;;;;;;;4.50;2.20;;;-4.60;99.90;;;;;;2212534;64;20092;-44
2022/01/13 10:55:56;;;;;;;2.97;1.33;;;-4.60;99.90;;;;;;2212212;64;20085;-42
2022/01/13 10:58:25;;;;;;;4.10;1.77;;;-4.60;99.90;;;;;;2214770;64;20606;-44
2022/01/13 11:00:52;;;;;;;5.33;1.57;;;-4.60;99.90;;;;;;2217391;64;20548;-43
2022/01/13 11:03:21;;;;;;;3.37;1.10;;;-4.60;99.90;;;;;;2217160;64;20100;-43
2022/01/13 11:06:09;;;;;;;2.53;0.97;;;-4.70;99.90;;;;;;2217339;64;20103;-43
2022/01/13 11:08:41;;;;;;;4.90;1.97;;;-4.60;99.90;;;;;;2220574;64;20551;-44
2022/01/13 11:11:29;;;;;;;2.77;0.90;;;-4.60;99.90;;;;;;2217151;64;20579;-45
2022/01/13 11:14:00;;;;;;;3.57;1.60;;;-4.70;99.90;;;;;;2217182;64;20076;-44
2022/01/13 11:16:29;;;;;;;4.73;2.07;;;-4.70;99.90;;;;;;2217120;64;20134;-43
2022/01/13 11:18:55;;;;;;;3.60;1.57;;;-4.70;99.90;;;;;;2217437;64;20556;-45
2022/01/13 11:21:22;;;;;;;6.80;3.13;;;-4.60;99.90;;;;;;2213866;64;20598;-44
2022/01/13 11:23:50;;;;;;;4.47;0.97;;;-4.70;99.90;;;;;;2217159;64;20100;-44
2022/01/13 11:26:17;;;;;;;5.00;2.03;;;-4.80;99.90;;;;;;2214370;64;20425;-44
2022/01/13 11:28:44;;;;;;;16.93;3.63;;;-4.80;99.90;;;;;;2213377;64;20100;-43
2022/01/13 11:31:11;;;;;;;3.37;1.33;;;-4.80;99.90;;;;;;2213489;64;20548;-44
2022/01/13 11:33:38;;;;;;;6.53;2.03;;;-4.90;99.90;;;;;;2210141;64;20081;-45
2022/01/13 11:36:07;;;;;;;5.03;1.10;;;-4.90;99.90;;;;;;2213316;64;20088;-43
2022/01/13 11:38:34;;;;;;;5.60;1.67;;;-4.90;99.90;;;;;;2210145;64;20080;-42
2022/01/13 11:41:05;;;;;;;2.33;0.90;;;-5.00;99.90;;;;;;2213324;64;20089;-44
2022/01/13 11:43:33;;;;;;;3.13;1.70;;;-5.00;99.90;;;;;;2213420;64;20534;-43
2022/01/13 11:46:14;;;;;;;1.30;0.67;;;-5.00;99.90;;;;;;2213330;64;20174;-44
2022/01/13 11:49:09;;;;;;;6.80;0.70;;;-5.10;99.90;;;;;;2213418;64;20077;-43
2022/01/13 11:52:09;;;;;;;9.03;2.57;;;-5.00;99.90;;;;;;2211941;64;20690;-44
2022/01/13 11:54:37;;;;;;;5.00;1.47;;;-5.00;99.90;;;;;;2208750;64;20089;-42
2022/01/13 11:57:11;;;;;;;2.70;0.77;;;-5.20;99.90;;;;;;2208923;64;20089;-45
2022/01/13 11:59:38;;;;;;;1.48;0.80;;;-5.10;99.90;;;;;;2212036;64;20097;-43
2022/01/13 12:02:24;;;;;;;4.00;1.40;;;-5.10;99.90;;;;;;2208890;64;20077;-46
2022/01/13 12:05:05;;;;;;;6.80;1.60;;;-5.20;99.90;;;;;;2212059;64;20099;-43
2022/01/13 12:07:42;;;;;;;5.63;1.20;;;-5.20;99.90;;;;;;2205902;64;20244;-43
2022/01/13 12:10:09;;;;;;;3.10;1.23;;;-5.30;99.90;;;;;;2212004;64;20082;-43
2022/01/13 12:12:37;;;;;;;4.47;1.30;;;-5.30;99.90;;;;;;2208988;64;20085;-44
2022/01/13 12:15:18;;;;;;;5.00;2.00;;;-5.20;99.90;;;;;;2208935;64;20182;-45
2022/01/13 12:17:52;;;;;;;6.80;0.83;;;-5.30;99.90;;;;;;2209639;64;20085;-43
2022/01/13 12:21:21;;;;;;;5.47;1.38;;;-5.40;99.90;;;;;;2209485;64;20086;-49
2022/01/13 12:23:38;;;;;;;1.87;0.80;;;-5.30;99.90;;;;;;2208642;64;20462;-48
2022/01/13 12:26:33;;;;;;;5.87;1.30;;;-5.40;99.90;;;;;;2211686;64;20104;-42
2022/01/13 12:29:23;;;;;;;5.00;1.50;;;-5.50;99.90;;;;;;2213151;64;20107;-43
2022/01/13 12:32:03;;;;;;;6.00;2.60;;;-5.50;99.90;;;;;;2213315;64;20104;-51
2022/01/13 12:34:33;;;;;;;2.67;1.00;;;-5.50;99.90;;;;;;2213243;64;20073;-41
2022/01/13 12:37:21;;;;;;;3.77;0.90;;;-5.50;99.90;;;;;;2213224;64;20104;-46
2022/01/13 12:40:03;;;;;;;3.43;1.10;;;-5.60;99.90;;;;;;2213178;64;20095;-42
2022/01/13 12:42:37;;;;;;;2.87;1.37;;;-5.60;99.90;;;;;;2213280;64;20170;-41
2022/01/13 12:47:50;;;;;;;2.30;1.10;;;-5.60;99.90;;;;;;2213064;64;20108;-52
2022/01/13 12:50:26;;;;;;;5.40;1.77;;;-5.50;99.90;;;;;;2213863;64;20506;-44
2022/01/13 12:53:32;;;;;;;3.20;1.30;;;-5.60;99.90;;;;;;2213749;64;20130;-42
2022/01/13 12:56:00;;;;;;;2.70;1.35;;;-5.60;99.90;;;;;;2203688;65;20094;-43
2022/01/13 12:58:32;;;;;;;5.80;1.43;;;-5.60;99.90;;;;;;2200568;65;20094;-42
2022/01/13 13:01:02;;;;;;;5.07;1.70;;;-5.70;99.90;;;;;;2200527;65;20164;-42
2022/01/13 13:03:29;;;;;;;2.73;1.20;;;-5.70;99.90;;;;;;2197429;65;20522;-40
2022/01/13 13:05:57;;;;;;;6.30;1.97;;;-5.80;99.90;;;;;;2200526;65;20105;-44
2022/01/13 13:08:25;;;;;;;7.20;1.20;;;-5.90;99.90;;;;;;2192640;65;20096;-41
2022/01/13 13:10:56;;;;;;;4.03;0.93;;;-5.90;99.90;;;;;;2196000;65;20536;-43
2022/01/13 13:13:23;;;;;;;3.67;1.07;;;-5.90;99.90;;;;;;2196093;65;20532;-46
2022/01/13 13:15:58;;;;;;;3.53;1.33;;;-5.90;99.90;;;;;;2196183;65;20091;-42
2022/01/13 13:18:26;;;;;;;6.35;1.17;;;-5.90;99.90;;;;;;2196115;65;20176;-44
2022/01/13 13:20:53;;;;;;;5.43;1.47;;;-5.90;99.90;;;;;;2196131;65;20091;-42
2022/01/13 13:23:23;;;;;;;4.53;1.67;;;-5.90;99.90;;;;;;2196234;65;20091;-43
2022/01/13 13:25:52;;;;;;;3.07;1.37;;;-6.00;99.90;;;;;;2197068;65;20260;-47
2022/01/13 13:28:32;;;;;;;2.73;1.10;;;-6.00;99.90;;;;;;2189339;65;20140;-46
2022/01/13 13:31:16;;;;;;;3.67;0.80;;;-6.10;99.90;;;;;;2197237;64;20151;-42
2022/01/13 13:33:45;;;;;;;4.67;1.80;;;-6.00;99.90;;;;;;2205147;64;20655;-41
2022/01/13 13:36:17;;;;;;;5.70;1.63;;;-6.00;99.90;;;;;;2204809;64;20116;-42